Time;durP1;ratioP1;P1;durP2;ratioP2;P2;SDS_P1;SDS_P2;PMS_P1;PMS_P2;Temp;Humidity;BMP_temperature;BMP_pressure;BME280_temperature;BME280_humidity;BME280_pressure;Samples;Min_cycle;Max_cycle;Signal;HPM_P1;HPM_P2
2023/09/08 00:00:34;;;;;;;7.95;6.03;;;20.50;99.90;;;;;;5031811;28;20048;-51
2023/09/08 00:03:38;;;;;;;10.25;5.97;;;20.70;99.90;;;;;;5032238;28;20040;-53
2023/09/08 00:06:42;;;;;;;8.32;5.78;;;20.70;99.90;;;;;;5032139;28;20044;-53
2023/09/08 00:09:46;;;;;;;8.77;6.43;;;20.90;99.90;;;;;;5032025;28;20041;-51
2023/09/08 00:12:50;;;;;;;6.75;5.80;;;21.20;99.90;;;;;;5031999;28;20053;-55
2023/09/08 00:15:54;;;;;;;13.70;6.07;;;21.10;99.90;;;;;;5032065;28;20044;-51
2023/09/08 00:18:58;;;;;;;11.95;5.72;;;21.20;99.90;;;;;;5031927;28;20503;-55
2023/09/08 00:22:05;;;;;;;7.35;5.95;;;21.20;99.90;;;;;;5031789;28;20519;-54
2023/09/08 00:25:09;;;;;;;8.02;5.70;;;21.40;99.90;;;;;;5031746;28;20052;-54
2023/09/08 00:28:13;;;;;;;11.70;6.00;;;21.60;99.90;;;;;;5031917;28;20045;-54
2023/09/08 00:31:18;;;;;;;7.93;6.38;;;21.50;99.90;;;;;;5031162;28;20048;-53
2023/09/08 00:34:22;;;;;;;6.95;5.85;;;21.20;99.90;;;;;;5030987;28;20056;-54
2023/09/08 00:37:26;;;;;;;15.35;6.28;;;21.30;99.90;;;;;;5031475;28;20041;-53
2023/09/08 00:40:30;;;;;;;9.15;5.88;;;21.50;99.90;;;;;;5031289;28;20048;-51
2023/09/08 00:43:34;;;;;;;9.73;5.63;;;21.40;99.90;;;;;;5031809;28;20045;-55
2023/09/08 00:46:38;;;;;;;9.13;6.28;;;21.30;99.90;;;;;;5019453;28;20048;-51
2023/09/08 00:49:42;;;;;;;8.55;5.80;;;21.10;99.90;;;;;;5031458;28;20033;-52
2023/09/08 00:52:47;;;;;;;6.88;5.80;;;20.90;99.90;;;;;;5031615;28;20033;-51
2023/09/08 00:55:52;;;;;;;9.68;5.88;;;20.70;99.90;;;;;;5031483;28;20033;-55
2023/09/08 00:58:56;;;;;;;15.10;6.68;;;20.50;99.90;;;;;;5027679;28;20056;-54
2023/09/08 01:02:02;;;;;;;13.02;6.40;;;20.40;99.90;;;;;;5035437;28;20109;-51
2023/09/08 01:05:06;;;;;;;8.68;6.70;;;20.40;99.90;;;;;;5035397;28;20052;-51
2023/09/08 01:08:10;;;;;;;8.43;6.30;;;20.30;99.90;;;;;;5034655;28;20060;-51
2023/09/08 01:11:14;;;;;;;8.90;6.88;;;20.30;99.90;;;;;;5035215;28;20042;-53
2023/09/08 01:14:19;;;;;;;13.25;6.68;;;20.30;99.90;;;;;;5035347;28;20037;-51
2023/09/08 01:17:24;;;;;;;7.07;5.55;;;20.20;99.90;;;;;;5035123;28;20053;-54
2023/09/08 01:20:44;;;;;;;8.88;6.05;;;20.20;99.90;;;;;;5034936;28;20103;-53
2023/09/08 01:24:07;;;;;;;9.88;6.03;;;20.20;99.90;;;;;;5034398;28;20040;-51
2023/09/08 01:27:14;;;;;;;7.30;6.00;;;20.20;99.90;;;;;;5035136;28;20048;-51
2023/09/08 01:30:19;;;;;;;11.90;6.10;;;20.10;99.90;;;;;;5034639;28;20037;-51
2023/09/08 01:33:23;;;;;;;9.82;6.03;;;20.10;99.90;;;;;;5034489;28;20044;-52
2023/09/08 01:36:27;;;;;;;8.93;5.93;;;20.10;99.90;;;;;;5034718;28;20045;-51
2023/09/08 01:39:31;;;;;;;20.00;6.70;;;20.10;99.90;;;;;;5034698;28;20044;-52
2023/09/08 01:42:35;;;;;;;10.75;6.75;;;20.00;99.90;;;;;;5034049;28;20403;-54
2023/09/08 01:45:40;;;;;;;6.40;5.50;;;19.90;99.90;;;;;;5034765;28;20041;-52
2023/09/08 01:48:44;;;;;;;9.70;6.25;;;19.90;99.90;;;;;;5034503;28;20049;-51
2023/09/08 01:51:48;;;;;;;10.95;6.63;;;19.80;99.90;;;;;;5034396;28;20045;-54
2023/09/08 01:54:53;;;;;;;9.43;7.07;;;19.80;99.90;;;;;;5034486;28;20048;-53
2023/09/08 01:57:57;;;;;;;8.75;6.38;;;19.70;99.90;;;;;;5034436;28;20046;-54
2023/09/08 02:01:05;;;;;;;9.25;6.43;;;19.70;99.90;;;;;;5033173;28;20527;-52
2023/09/08 02:04:09;;;;;;;10.70;5.68;;;19.60;99.90;;;;;;5033610;28;20038;-52
2023/09/08 02:07:13;;;;;;;10.75;6.55;;;19.60;99.90;;;;;;5033377;28;20115;-55
2023/09/08 02:10:17;;;;;;;11.38;6.10;;;19.50;99.90;;;;;;5034004;28;20539;-52
2023/09/08 02:13:24;;;;;;;11.20;6.68;;;19.60;99.90;;;;;;5022043;28;20044;-52
2023/09/08 02:16:28;;;;;;;12.57;6.32;;;19.70;99.90;;;;;;5033125;28;20048;-52
2023/09/08 02:19:32;;;;;;;9.65;6.72;;;19.70;99.90;;;;;;5034107;28;20049;-51
2023/09/08 02:22:36;;;;;;;8.30;6.68;;;19.80;99.90;;;;;;5034039;28;20509;-52
2023/09/08 02:25:40;;;;;;;8.23;5.88;;;19.80;99.90;;;;;;5033276;28;20444;-51
2023/09/08 02:28:44;;;;;;;9.68;6.50;;;19.80;99.90;;;;;;5033161;28;20048;-51
2023/09/08 02:31:48;;;;;;;8.20;6.18;;;19.70;99.90;;;;;;5032585;28;20523;-51
2023/09/08 02:34:52;;;;;;;11.35;6.32;;;19.70;99.90;;;;;;5033076;28;20045;-51
2023/09/08 02:37:58;;;;;;;8.35;5.80;;;19.70;99.90;;;;;;5032691;28;20049;-51
2023/09/08 02:41:03;;;;;;;9.25;6.05;;;19.70;99.90;;;;;;5031754;22;20353;-51
2023/09/08 02:44:07;;;;;;;10.25;5.75;;;19.70;99.90;;;;;;5021152;28;20131;-51
2023/09/08 02:47:11;;;;;;;7.60;6.13;;;19.70;99.90;;;;;;5021100;28;20044;-51
2023/09/08 02:50:17;;;;;;;9.52;6.03;;;19.70;99.90;;;;;;5021118;28;20045;-54
2023/09/08 02:53:21;;;;;;;13.48;6.65;;;19.70;99.90;;;;;;5033466;28;20034;-54
2023/09/08 02:56:25;;;;;;;9.57;6.40;;;19.60;99.90;;;;;;5033263;28;20049;-53
2023/09/08 02:59:30;;;;;;;8.25;6.38;;;19.50;99.90;;;;;;5033421;28;20053;-53
2023/09/08 03:02:34;;;;;;;10.88;6.45;;;19.50;99.90;;;;;;5020915;28;20036;-53
2023/09/08 03:05:39;;;;;;;11.68;6.30;;;19.50;99.90;;;;;;5020968;28;20045;-51
2023/09/08 03:08:42;;;;;;;12.02;6.00;;;19.50;99.90;;;;;;5020819;28;20056;-54
2023/09/08 03:11:46;;;;;;;8.68;6.40;;;19.40;99.90;;;;;;5033160;28;20048;-53
2023/09/08 03:14:50;;;;;;;8.05;6.57;;;19.50;99.90;;;;;;5020865;28;20080;-51
2023/09/08 03:17:55;;;;;;;10.07;7.10;;;19.50;99.90;;;;;;5032861;28;20041;-51
2023/09/08 03:21:01;;;;;;;8.25;6.80;;;19.40;99.90;;;;;;5018699;28;20041;-53
2023/09/08 03:24:05;;;;;;;11.60;6.88;;;19.40;99.90;;;;;;5014872;28;20040;-52
2023/09/08 03:27:10;;;;;;;8.68;6.28;;;19.50;99.90;;;;;;5020515;28;20041;-51
2023/09/08 03:30:15;;;;;;;8.05;6.47;;;19.50;99.90;;;;;;5032588;28;20030;-51
2023/09/08 03:33:21;;;;;;;10.43;6.90;;;19.50;99.90;;;;;;5020446;28;20516;-53
2023/09/08 03:36:25;;;;;;;8.48;6.75;;;19.40;99.90;;;;;;5017222;28;20048;-52
2023/09/08 03:39:29;;;;;;;10.45;7.07;;;19.40;99.90;;;;;;5020253;28;20053;-52
2023/09/08 03:42:34;;;;;;;10.45;6.47;;;19.30;99.90;;;;;;5032596;28;20045;-51
2023/09/08 03:45:39;;;;;;;9.45;6.90;;;19.30;99.90;;;;;;5020337;28;20041;-51
2023/09/08 03:48:43;;;;;;;15.93;7.47;;;19.20;99.90;;;;;;5020167;28;20049;-52
2023/09/08 03:51:47;;;;;;;9.43;6.95;;;19.10;99.90;;;;;;5032257;28;20044;-53
2023/09/08 03:54:51;;;;;;;11.07;7.10;;;19.00;99.90;;;;;;5032416;28;20517;-53
2023/09/08 03:57:55;;;;;;;11.23;7.03;;;18.90;99.90;;;;;;5019819;28;20049;-52
2023/09/08 04:01:00;;;;;;;8.93;7.00;;;19.00;99.90;;;;;;5019793;28;20068;-52
2023/09/08 04:04:04;;;;;;;10.75;6.95;;;19.10;99.90;;;;;;5032057;28;20037;-52
2023/09/08 04:07:08;;;;;;;8.80;6.55;;;19.10;99.90;;;;;;5031911;28;20048;-52
2023/09/08 04:10:12;;;;;;;9.43;6.90;;;19.20;99.90;;;;;;5019424;28;20037;-53
2023/09/08 04:13:16;;;;;;;9.77;6.72;;;19.10;99.90;;;;;;5031951;28;20037;-51
2023/09/08 04:16:20;;;;;;;9.15;7.20;;;19.10;99.90;;;;;;5032094;28;20046;-51
2023/09/08 04:19:25;;;;;;;11.60;7.50;;;19.20;99.90;;;;;;5028089;28;20515;-52
2023/09/08 04:22:29;;;;;;;10.57;7.43;;;19.20;99.90;;;;;;5019881;28;20503;-51
2023/09/08 04:25:34;;;;;;;8.65;7.28;;;19.30;99.90;;;;;;5031788;28;20048;-51
2023/09/08 04:28:38;;;;;;;11.32;7.63;;;19.50;99.90;;;;;;5019598;28;20045;-51
2023/09/08 04:31:42;;;;;;;10.00;7.00;;;20.00;99.90;;;;;;5019336;28;20049;-52
2023/09/08 04:34:46;;;;;;;10.57;6.88;;;20.30;99.90;;;;;;5008421;28;20060;-52
2023/09/08 04:37:50;;;;;;;9.93;7.57;;;20.30;99.90;;;;;;5019659;28;20044;-51
2023/09/08 04:40:54;;;;;;;10.38;7.28;;;20.10;99.90;;;;;;5019290;28;20037;-51
2023/09/08 04:43:59;;;;;;;12.70;7.45;;;19.90;99.90;;;;;;5019428;28;20044;-51
2023/09/08 04:47:04;;;;;;;8.60;7.22;;;19.70;99.90;;;;;;5019321;28;20511;-51
2023/09/08 04:50:08;;;;;;;15.43;7.82;;;19.60;99.90;;;;;;5018682;28;20052;-51
2023/09/08 04:53:13;;;;;;;12.93;7.55;;;19.50;99.90;;;;;;5019270;28;20044;-52
2023/09/08 04:56:17;;;;;;;10.90;7.57;;;19.40;99.90;;;;;;5019418;28;20041;-52
2023/09/08 04:59:22;;;;;;;10.18;7.07;;;19.40;99.90;;;;;;5031235;28;20053;-51
2023/09/08 05:02:27;;;;;;;10.57;7.68;;;19.40;99.90;;;;;;5019345;28;20044;-52
2023/09/08 05:05:31;;;;;;;8.95;6.70;;;19.40;99.90;;;;;;5021417;28;20048;-52
2023/09/08 05:08:35;;;;;;;10.88;7.47;;;19.20;99.90;;;;;;5031443;28;20048;-51
2023/09/08 05:11:39;;;;;;;11.93;8.13;;;19.10;99.90;;;;;;5019185;28;20045;-51
2023/09/08 05:14:44;;;;;;;10.50;7.32;;;19.10;99.90;;;;;;5019255;28;20064;-51
2023/09/08 05:17:48;;;;;;;13.35;8.07;;;19.00;99.90;;;;;;5018980;28;20048;-53
2023/09/08 05:20:53;;;;;;;15.45;8.27;;;19.00;99.90;;;;;;5018964;28;20045;-54
2023/09/08 05:23:57;;;;;;;14.50;7.22;;;19.20;99.90;;;;;;5030944;28;20384;-52
2023/09/08 05:27:00;;;;;;;11.68;7.85;;;19.20;99.90;;;;;;5031309;28;20057;-51
2023/09/08 05:30:05;;;;;;;9.90;7.70;;;19.20;99.90;;;;;;5018679;28;20044;-53
2023/09/08 05:33:11;;;;;;;11.70;6.97;;;19.20;99.90;;;;;;5018943;28;20428;-51
2023/09/08 05:36:15;;;;;;;10.25;7.90;;;19.20;99.90;;;;;;5030425;28;20040;-51
2023/09/08 05:39:20;;;;;;;9.35;6.70;;;20.70;99.90;;;;;;5007244;28;20044;-52
2023/09/08 05:42:24;;;;;;;12.82;5.70;;;22.40;99.90;;;;;;5018971;28;20061;-55
2023/09/08 05:45:28;;;;;;;7.13;6.25;;;23.90;99.90;;;;;;5022670;28;20045;-51
2023/09/08 05:48:32;;;;;;;9.95;6.45;;;25.00;99.90;;;;;;5021771;28;20037;-54
2023/09/08 05:51:36;;;;;;;9.23;6.30;;;25.90;99.90;;;;;;5033313;28;20041;-52
2023/09/08 05:54:40;;;;;;;16.55;6.43;;;26.70;99.90;;;;;;5023961;28;20064;-52
2023/09/08 05:57:44;;;;;;;11.15;5.95;;;28.70;99.80;;;;;;5021875;28;20041;-51
2023/09/08 06:00:48;;;;;;;9.45;5.03;;;28.00;99.10;;;;;;5033970;28;20049;-51
2023/09/08 06:03:54;;;;;;;7.38;4.88;;;29.00;97.30;;;;;;5034493;28;20049;-52
2023/09/08 06:06:58;;;;;;;8.27;5.05;;;28.60;96.70;;;;;;5022220;28;20037;-52
2023/09/08 06:10:03;;;;;;;6.68;5.75;;;29.60;95.40;;;;;;5021317;28;20040;-51
2023/09/08 06:13:08;;;;;;;10.18;5.35;;;29.70;94.80;;;;;;5022118;28;20044;-52
2023/09/08 06:16:12;;;;;;;13.23;8.32;;;29.90;94.40;;;;;;5021734;28;20538;-52
2023/09/08 06:19:15;;;;;;;12.68;8.05;;;31.20;93.40;;;;;;5033805;28;20049;-54
2023/09/08 06:22:19;;;;;;;10.07;5.18;;;32.10;92.20;;;;;;5034021;28;20052;-54
2023/09/08 06:25:23;;;;;;;8.63;4.82;;;33.10;91.10;;;;;;5020645;28;20052;-52
2023/09/08 06:28:28;;;;;;;7.40;4.75;;;32.30;90.10;;;;;;5020623;28;20522;-53
2023/09/08 06:31:32;;;;;;;6.88;3.83;;;32.60;90.60;;;;;;5016589;28;20037;-52
2023/09/08 06:34:36;;;;;;;10.68;4.50;;;33.50;89.20;;;;;;5021496;28;20041;-52
2023/09/08 06:37:40;;;;;;;7.70;3.92;;;32.40;89.80;;;;;;5021463;28;20511;-51
2023/09/08 06:40:45;;;;;;;8.48;4.40;;;30.90;90.20;;;;;;5021216;28;20045;-52
2023/09/08 06:43:49;;;;;;;7.90;4.28;;;32.00;90.40;;;;;;5001653;28;20048;-52
2023/09/08 06:46:58;;;;;;;10.05;3.95;;;33.50;87.80;;;;;;5015414;28;20042;-51
2023/09/08 06:50:04;;;;;;;6.50;4.00;;;34.60;86.00;;;;;;5020428;28;20527;-51
2023/09/08 06:53:08;;;;;;;6.68;4.15;;;35.10;83.40;;;;;;5033455;28;20041;-52
2023/09/08 06:56:13;;;;;;;8.15;4.18;;;34.60;83.20;;;;;;5020524;28;20041;-52
2023/09/08 06:59:17;;;;;;;9.38;4.22;;;34.80;82.20;;;;;;5018797;28;20045;-55
2023/09/08 07:02:22;;;;;;;6.55;3.67;;;35.00;82.20;;;;;;5017523;28;20403;-51
2023/09/08 07:05:25;;;;;;;4.75;3.67;;;35.20;81.20;;;;;;5015446;28;20049;-61
2023/09/08 07:08:29;;;;;;;5.65;3.80;;;34.60;82.00;;;;;;5017192;28;20038;-52
2023/09/08 07:11:34;;;;;;;6.00;4.03;;;34.80;82.00;;;;;;5014957;28;20037;-53
2023/09/08 07:14:38;;;;;;;7.03;3.75;;;35.30;80.20;;;;;;5028000;28;20048;-51
2023/09/08 07:17:42;;;;;;;9.27;3.90;;;35.40;80.80;;;;;;5029354;28;20056;-55
2023/09/08 07:20:49;;;;;;;6.60;3.80;;;35.80;80.20;;;;;;5017037;28;20049;-55
2023/09/08 07:23:53;;;;;;;5.95;3.95;;;32.90;81.30;;;;;;5016170;28;20030;-52
2023/09/08 07:27:00;;;;;;;5.80;3.78;;;34.40;80.90;;;;;;5017346;28;20033;-55
2023/09/08 07:30:05;;;;;;;9.20;4.00;;;35.90;79.50;;;;;;5027516;28;20033;-55
2023/09/08 07:33:11;;;;;;;7.40;3.90;;;37.00;77.60;;;;;;5014995;28;20407;-53
2023/09/08 07:36:17;;;;;;;5.35;3.47;;;37.90;76.30;;;;;;5019416;28;20111;-55
2023/09/08 07:39:22;;;;;;;4.22;3.30;;;38.60;75.40;;;;;;5013122;28;20030;-50
2023/09/08 07:42:27;;;;;;;5.53;3.90;;;39.40;73.60;;;;;;5032305;28;20037;-54
2023/09/08 07:45:31;;;;;;;5.72;3.10;;;39.10;72.70;;;;;;5018533;28;20050;-55
2023/09/08 07:48:35;;;;;;;6.70;3.70;;;39.20;72.60;;;;;;5043255;28;20042;-54
2023/09/08 07:51:39;;;;;;;6.95;3.42;;;39.70;71.40;;;;;;5039854;28;20044;-53
2023/09/08 07:54:43;;;;;;;7.05;3.53;;;38.60;70.40;;;;;;5018975;28;20048;-56
2023/09/08 07:57:47;;;;;;;7.38;3.22;;;39.20;71.70;;;;;;5023492;28;20045;-53
2023/09/08 08:00:51;;;;;;;11.70;3.42;;;40.40;70.50;;;;;;5026385;28;20468;-53
2023/09/08 08:03:55;;;;;;;14.18;3.40;;;41.40;68.80;;;;;;5031070;28;20056;-52
2023/09/08 08:06:59;;;;;;;12.07;3.42;;;41.30;67.80;;;;;;5031052;28;20049;-52
2023/09/08 08:10:05;;;;;;;10.68;3.53;;;42.40;67.20;;;;;;5029175;28;20048;-56
2023/09/08 08:13:09;;;;;;;9.32;2.97;;;42.60;66.10;;;;;;5031553;28;20508;-52
2023/09/08 08:16:12;;;;;;;8.43;3.45;;;43.20;64.80;;;;;;5031650;28;20045;-53
2023/09/08 08:19:16;;;;;;;4.72;2.95;;;42.80;64.70;;;;;;5028286;28;20037;-54
2023/09/08 08:22:20;;;;;;;6.03;3.22;;;43.50;63.40;;;;;;5029274;28;20049;-52
2023/09/08 08:25:24;;;;;;;4.32;2.75;;;43.70;63.30;;;;;;5029870;28;20412;-54
2023/09/08 08:28:28;;;;;;;4.65;3.10;;;44.20;62.70;;;;;;5028015;28;20037;-53
2023/09/08 08:31:33;;;;;;;5.28;3.00;;;44.80;60.50;;;;;;5031115;28;20049;-52
2023/09/08 08:34:37;;;;;;;4.22;2.97;;;45.10;60.00;;;;;;5029028;28;20061;-51
2023/09/08 08:37:41;;;;;;;6.57;2.72;;;45.50;58.80;;;;;;5029491;28;20444;-52
2023/09/08 08:40:45;;;;;;;3.25;2.70;;;45.30;58.20;;;;;;5027318;28;20508;-56
2023/09/08 08:43:51;;;;;;;7.80;3.10;;;45.40;58.10;;;;;;5035789;28;20053;-56
2023/09/08 08:46:56;;;;;;;4.15;3.17;;;42.90;57.10;;;;;;5029260;28;20037;-50
2023/09/08 08:50:01;;;;;;;4.35;3.10;;;43.40;59.00;;;;;;5030424;28;20044;-54
2023/09/08 08:53:08;;;;;;;5.35;3.15;;;43.20;57.90;;;;;;5029945;28;20040;-55
2023/09/08 08:56:12;;;;;;;4.18;3.03;;;43.30;57.30;;;;;;5027475;28;20041;-54
2023/09/08 08:59:16;;;;;;;7.00;3.00;;;42.20;59.20;;;;;;5029108;28;20037;-55
2023/09/08 09:02:22;;;;;;;9.55;3.00;;;43.30;58.80;;;;;;5018730;28;20042;-55
2023/09/08 09:05:26;;;;;;;6.13;2.90;;;44.60;58.10;;;;;;5030056;28;20037;-53
2023/09/08 09:08:32;;;;;;;3.67;2.97;;;43.00;58.10;;;;;;5029054;28;20507;-52
2023/09/08 09:11:36;;;;;;;4.60;3.00;;;42.20;58.70;;;;;;5025095;28;20049;-51
2023/09/08 09:14:47;;;;;;;8.00;3.00;;;41.70;58.10;;;;;;5035997;28;20046;-54
2023/09/08 09:18:08;;;;;;;6.93;3.30;;;42.40;59.50;;;;;;5043919;28;20051;-54
2023/09/08 09:21:12;;;;;;;3.67;2.65;;;41.80;58.70;;;;;;5019815;28;20037;-52
2023/09/08 09:24:40;;;;;;;7.30;3.00;;;42.90;57.90;;;;;;5034605;28;20037;-55
2023/09/08 09:27:50;;;;;;;8.90;3.20;;;43.90;57.50;;;;;;5033063;28;20048;-55
2023/09/08 09:30:55;;;;;;;8.32;3.47;;;44.10;57.60;;;;;;5032061;28;20053;-53
2023/09/08 09:34:05;;;;;;;9.10;3.65;;;40.00;58.10;;;;;;5032719;28;20033;-53
2023/09/08 09:37:09;;;;;;;4.70;3.40;;;40.70;60.10;;;;;;5017817;28;20037;-51
2023/09/08 09:40:14;;;;;;;5.78;2.90;;;42.70;59.80;;;;;;5029699;28;20053;-50
2023/09/08 09:43:21;;;;;;;5.03;2.65;;;45.50;57.60;;;;;;5029428;28;20040;-55
2023/09/08 09:46:28;;;;;;;5.75;2.90;;;47.00;56.20;;;;;;5033608;28;20056;-54
2023/09/08 09:49:41;;;;;;;5.35;2.80;;;48.70;54.30;;;;;;5031650;28;20037;-51
2023/09/08 09:52:48;;;;;;;5.38;2.35;;;48.90;54.20;;;;;;5028420;28;20411;-54
2023/09/08 09:55:53;;;;;;;4.03;2.70;;;49.50;52.80;;;;;;5037685;28;20047;-54
2023/09/08 09:58:58;;;;;;;5.07;2.83;;;50.20;52.90;;;;;;5036905;28;20507;-55
2023/09/08 10:02:02;;;;;;;5.15;2.80;;;45.30;52.70;;;;;;5041126;28;20060;-53
2023/09/08 10:05:12;;;;;;;3.22;2.80;;;43.60;54.60;;;;;;5035843;28;20044;-54
2023/09/08 10:08:17;;;;;;;4.47;2.80;;;45.90;54.90;;;;;;5010154;28;20049;-55
2023/09/08 10:11:22;;;;;;;2.70;2.50;;;47.70;54.00;;;;;;5042638;28;20040;-54
2023/09/08 10:14:28;;;;;;;3.90;2.55;;;49.50;53.50;;;;;;5037627;28;20508;-55
2023/09/08 10:17:33;;;;;;;4.63;2.50;;;50.90;51.40;;;;;;5045753;28;20032;-55
2023/09/08 10:20:39;;;;;;;3.03;2.42;;;51.40;51.30;;;;;;5037970;28;20038;-55
2023/09/08 10:23:59;;;;;;;5.50;2.53;;;51.50;50.70;;;;;;5037827;28;20059;-55
2023/09/08 10:27:12;;;;;;;4.60;2.75;;;51.80;50.60;;;;;;5032051;28;20407;-53
2023/09/08 10:30:17;;;;;;;7.75;2.75;;;51.20;49.60;;;;;;5025583;28;20048;-51
2023/09/08 10:33:23;;;;;;;5.82;3.00;;;45.30;50.10;;;;;;5030346;28;20578;-53
2023/09/08 10:36:28;;;;;;;7.63;3.08;;;44.00;54.60;;;;;;5032886;28;20052;-52
2023/09/08 10:39:39;;;;;;;6.88;3.00;;;45.50;53.00;;;;;;5029827;28;20416;-54
2023/09/08 10:42:44;;;;;;;4.20;3.17;;;46.60;52.70;;;;;;5043119;28;20044;-54
2023/09/08 10:45:47;;;;;;;3.67;3.25;;;46.30;51.50;;;;;;5045249;28;20036;-50
2023/09/08 10:49:06;;;;;;;4.35;2.63;;;47.60;51.90;;;;;;5033827;28;20069;-52
2023/09/08 10:52:12;;;;;;;8.43;2.97;;;49.30;50.50;;;;;;5031881;28;20044;-55
2023/09/08 10:55:16;;;;;;;4.82;3.00;;;50.40;50.20;;;;;;5035087;28;20037;-55
2023/09/08 10:58:40;;;;;;;5.13;2.60;;;49.20;49.80;;;;;;5031940;28;20060;-51
2023/09/08 11:01:46;;;;;;;6.60;3.25;;;48.10;50.10;;;;;;5024233;28;20104;-53
2023/09/08 11:04:53;;;;;;;4.07;3.10;;;46.00;51.90;;;;;;5027043;28;20033;-51
2023/09/08 11:07:57;;;;;;;4.35;3.05;;;44.80;52.30;;;;;;5031186;28;20396;-52
2023/09/08 11:11:02;;;;;;;5.70;2.80;;;46.30;51.80;;;;;;5024792;28;20048;-50
2023/09/08 11:14:06;;;;;;;6.80;3.10;;;44.00;51.00;;;;;;5023096;28;20054;-49
2023/09/08 11:17:10;;;;;;;4.60;3.05;;;42.60;53.50;;;;;;5030546;28;20042;-54
2023/09/08 11:20:15;;;;;;;4.40;3.10;;;43.00;54.20;;;;;;5030409;28;20040;-53
2023/09/08 11:23:23;;;;;;;5.55;3.55;;;44.90;53.10;;;;;;5031647;28;20392;-54
2023/09/08 11:26:28;;;;;;;5.88;3.35;;;41.00;53.40;;;;;;5030443;28;20043;-54
2023/09/08 11:29:33;;;;;;;6.38;3.30;;;39.30;56.10;;;;;;5027538;28;20451;-54
2023/09/08 11:32:37;;;;;;;7.47;3.67;;;41.50;55.30;;;;;;5016570;28;20050;-54
2023/09/08 11:35:43;;;;;;;4.80;3.30;;;39.30;57.50;;;;;;5028178;28;20037;-54
2023/09/08 11:38:47;;;;;;;5.30;3.45;;;42.20;55.50;;;;;;5030621;28;20037;-52
2023/09/08 11:41:52;;;;;;;5.50;3.40;;;43.10;53.80;;;;;;5028534;28;20396;-54
2023/09/08 11:44:57;;;;;;;4.47;3.30;;;41.60;54.30;;;;;;5022369;28;20052;-56
2023/09/08 11:48:02;;;;;;;4.53;3.33;;;43.60;53.70;;;;;;5026435;28;20420;-50
2023/09/08 11:51:08;;;;;;;5.88;2.90;;;45.70;52.60;;;;;;5029302;28;20112;-53
2023/09/08 11:54:13;;;;;;;4.43;2.90;;;46.90;51.70;;;;;;5026310;28;20508;-55
2023/09/08 11:57:17;;;;;;;6.38;3.20;;;43.10;53.10;;;;;;5024471;28;20049;-53
2023/09/08 12:00:23;;;;;;;3.90;2.83;;;43.00;54.10;;;;;;5016381;28;20033;-56
2023/09/08 12:03:27;;;;;;;8.57;3.30;;;44.60;52.70;;;;;;5031193;28;20041;-52
2023/09/08 12:06:31;;;;;;;4.57;3.38;;;45.00;52.20;;;;;;5029716;28;20507;-56
2023/09/08 12:09:35;;;;;;;5.03;3.33;;;44.10;53.30;;;;;;5029185;28;20048;-56
2023/09/08 12:12:53;;;;;;;4.47;3.38;;;44.80;52.80;;;;;;5029182;28;20056;-53
2023/09/08 12:15:57;;;;;;;3.40;3.10;;;46.50;52.40;;;;;;5025312;28;20056;-53
2023/09/08 12:19:01;;;;;;;5.95;2.78;;;48.00;51.40;;;;;;5019283;28;20036;-52
2023/09/08 12:22:07;;;;;;;6.03;3.00;;;46.70;50.90;;;;;;5040964;28;20037;-54
2023/09/08 12:25:11;;;;;;;6.97;3.40;;;47.00;51.70;;;;;;5029752;28;20033;-57
2023/09/08 12:28:17;;;;;;;6.68;2.85;;;47.50;51.10;;;;;;5022376;28;20037;-49
2023/09/08 12:31:22;;;;;;;4.13;3.20;;;47.90;50.70;;;;;;5028872;28;20029;-53
2023/09/08 12:34:27;;;;;;;4.38;3.15;;;47.80;50.80;;;;;;5032216;28;20033;-50
2023/09/08 12:37:33;;;;;;;3.63;2.83;;;48.70;50.20;;;;;;5046773;28;20037;-51
2023/09/08 12:40:38;;;;;;;7.60;3.08;;;49.60;49.70;;;;;;5033086;28;20038;-52
2023/09/08 12:43:42;;;;;;;4.03;3.00;;;49.10;49.40;;;;;;5029837;28;20040;-56
2023/09/08 12:46:53;;;;;;;7.50;2.90;;;48.80;49.70;;;;;;5023367;28;20034;-52
2023/09/08 12:49:57;;;;;;;3.95;2.67;;;49.30;49.80;;;;;;5022245;28;20045;-55
2023/09/08 12:53:01;;;;;;;6.43;2.95;;;49.30;49.30;;;;;;5039592;28;20043;-56
2023/09/08 12:56:05;;;;;;;3.25;2.80;;;48.10;50.60;;;;;;5017121;28;20052;-55
2023/09/08 12:59:09;;;;;;;3.85;2.90;;;48.00;49.80;;;;;;5031680;28;20042;-54
2023/09/08 13:02:14;;;;;;;5.40;3.15;;;47.30;49.80;;;;;;5025176;28;20037;-51
2023/09/08 13:05:17;;;;;;;5.00;2.92;;;47.50;50.10;;;;;;5040885;28;20040;-52
2023/09/08 13:08:21;;;;;;;4.40;2.80;;;48.50;49.70;;;;;;5023621;28;20033;-55
2023/09/08 13:11:26;;;;;;;4.80;3.00;;;48.20;49.60;;;;;;5034822;28;20038;-51
2023/09/08 13:14:30;;;;;;;4.28;3.00;;;47.30;49.80;;;;;;5022841;28;20060;-56
2023/09/08 13:17:34;;;;;;;3.38;3.08;;;45.70;50.20;;;;;;5035098;28;20408;-55
2023/09/08 13:20:38;;;;;;;6.00;3.10;;;45.00;50.50;;;;;;5030100;28;20515;-52
2023/09/08 13:23:42;;;;;;;3.95;3.00;;;44.20;50.80;;;;;;5034607;28;20046;-55
2023/09/08 13:26:46;;;;;;;6.78;3.30;;;43.50;51.50;;;;;;5034551;28;20029;-53
2023/09/08 13:29:49;;;;;;;3.83;3.30;;;43.80;51.90;;;;;;5015265;28;20046;-53
2023/09/08 13:32:55;;;;;;;7.32;3.22;;;44.80;51.40;;;;;;5028255;28;20050;-52
2023/09/08 13:35:59;;;;;;;4.43;3.25;;;45.20;51.50;;;;;;5033958;28;20776;-54
2023/09/08 13:39:03;;;;;;;6.88;3.38;;;45.10;51.60;;;;;;5045861;28;20033;-55
2023/09/08 13:42:08;;;;;;;6.45;3.60;;;44.30;52.00;;;;;;5033315;28;20044;-55
2023/09/08 13:45:12;;;;;;;4.78;3.10;;;43.40;52.50;;;;;;5032774;28;20044;-51
2023/09/08 13:48:16;;;;;;;4.95;3.30;;;43.50;52.30;;;;;;5035958;28;20033;-52
2023/09/08 13:51:20;;;;;;;4.30;3.13;;;44.20;52.10;;;;;;5032745;28;20041;-52
2023/09/08 13:54:24;;;;;;;6.97;3.40;;;44.60;51.80;;;;;;5038347;28;20502;-56
2023/09/08 13:57:29;;;;;;;4.70;3.40;;;44.60;51.50;;;;;;5041181;28;20468;-56
2023/09/08 14:00:33;;;;;;;8.30;3.42;;;43.90;51.90;;;;;;5023281;28;20053;-55
2023/09/08 14:03:37;;;;;;;4.65;3.60;;;43.10;52.30;;;;;;5041340;28;20042;-55
2023/09/08 14:06:48;;;;;;;5.35;3.50;;;42.00;53.00;;;;;;5046645;28;20040;-51
2023/09/08 14:09:53;;;;;;;9.93;3.60;;;40.60;54.20;;;;;;5044247;28;20046;-54
2023/09/08 14:12:57;;;;;;;4.20;3.50;;;41.20;53.80;;;;;;5048377;28;20562;-55
2023/09/08 14:16:01;;;;;;;5.63;3.95;;;41.20;53.90;;;;;;5022972;28;20053;-55
2023/09/08 14:19:05;;;;;;;6.78;3.97;;;39.70;55.20;;;;;;5033657;28;20041;-53
2023/09/08 14:22:09;;;;;;;5.65;4.45;;;38.10;56.00;;;;;;5028488;28;20053;-50
2023/09/08 14:25:13;;;;;;;4.65;4.00;;;37.00;57.30;;;;;;5021384;28;20034;-54
2023/09/08 14:28:17;;;;;;;6.75;4.15;;;36.90;57.50;;;;;;5033899;28;20519;-53
2023/09/08 14:31:21;;;;;;;13.15;4.05;;;37.50;57.80;;;;;;5033595;28;20056;-54
2023/09/08 14:34:25;;;;;;;8.45;4.57;;;37.70;57.20;;;;;;5033454;28;20048;-56
2023/09/08 14:37:29;;;;;;;8.02;4.40;;;37.30;57.10;;;;;;5033455;28;20045;-53
2023/09/08 14:40:33;;;;;;;10.55;5.03;;;36.40;58.20;;;;;;5029760;28;20046;-54
2023/09/08 14:43:37;;;;;;;5.43;4.53;;;35.80;58.70;;;;;;5028741;28;20040;-55
2023/09/08 14:46:41;;;;;;;6.00;4.65;;;35.20;59.60;;;;;;5039951;28;20029;-52
2023/09/08 14:49:45;;;;;;;7.93;4.63;;;35.10;59.40;;;;;;5030599;28;20052;-54
2023/09/08 14:52:50;;;;;;;9.52;4.35;;;35.20;59.60;;;;;;5030986;28;20045;-51
2023/09/08 14:55:57;;;;;;;7.05;4.13;;;35.20;59.60;;;;;;5025929;28;20041;-54
2023/09/08 14:59:01;;;;;;;7.28;4.10;;;35.30;59.20;;;;;;5022248;28;20042;-50
2023/09/08 15:02:06;;;;;;;6.90;4.60;;;35.30;59.50;;;;;;5040702;28;20041;-51
2023/09/08 15:05:10;;;;;;;6.55;4.45;;;35.00;59.80;;;;;;5053123;28;20044;-51
2023/09/08 15:08:14;;;;;;;7.68;4.63;;;34.70;59.90;;;;;;5035718;28;20510;-54
2023/09/08 15:11:18;;;;;;;6.32;4.10;;;34.70;60.00;;;;;;5032941;28;20057;-51
2023/09/08 15:14:22;;;;;;;11.13;4.53;;;34.50;60.30;;;;;;5033211;28;20508;-51
2023/09/08 15:17:26;;;;;;;9.68;4.38;;;34.10;60.50;;;;;;5032166;28;20507;-52
2023/09/08 15:20:29;;;;;;;9.82;5.05;;;34.00;60.80;;;;;;5032451;28;20042;-52
2023/09/08 15:23:33;;;;;;;7.85;5.07;;;33.80;61.00;;;;;;5032002;28;20037;-54
2023/09/08 15:26:38;;;;;;;9.18;5.10;;;33.70;61.50;;;;;;5032621;28;20038;-51
2023/09/08 15:29:42;;;;;;;8.20;4.40;;;33.40;61.80;;;;;;5032904;28;20037;-51
2023/09/08 15:32:46;;;;;;;7.35;4.57;;;33.30;62.00;;;;;;5032067;28;20040;-54
2023/09/08 15:35:56;;;;;;;5.22;4.35;;;33.30;61.80;;;;;;5032405;28;20040;-52
2023/09/08 15:38:59;;;;;;;9.00;4.80;;;33.30;61.70;;;;;;5032683;28;20056;-55
2023/09/08 15:42:03;;;;;;;8.57;4.60;;;33.10;62.40;;;;;;5030154;28;20046;-51
2023/09/08 15:45:07;;;;;;;6.28;5.10;;;32.70;62.40;;;;;;5012808;28;20513;-51
2023/09/08 15:48:11;;;;;;;8.25;4.47;;;32.70;62.80;;;;;;5021123;28;20029;-54
2023/09/08 15:51:15;;;;;;;6.88;4.90;;;32.70;62.80;;;;;;5031929;28;20041;-51
2023/09/08 15:54:19;;;;;;;5.47;4.40;;;32.30;63.30;;;;;;5031845;28;20045;-51
2023/09/08 15:57:22;;;;;;;8.40;5.07;;;32.30;63.30;;;;;;5028854;28;20416;-51
2023/09/08 16:00:26;;;;;;;6.88;4.82;;;32.40;63.50;;;;;;5031740;28;20046;-51